createdAt,value
2022-09-23T00:01:07.626Z,72.80
2022-09-23T00:03:37.160Z,72.70
2022-09-23T00:06:07.101Z,72.70
2022-09-23T00:08:34.310Z,72.70
2022-09-23T00:11:25.157Z,72.90
2022-09-23T00:13:55.514Z,72.90
2022-09-23T00:16:25.780Z,73.00
2022-09-23T00:18:52.647Z,73.10
2022-09-23T00:21:21.208Z,73.10
2022-09-23T00:23:48.501Z,73.20
2022-09-23T00:26:17.245Z,73.10
2022-09-23T00:28:44.002Z,73.10
2022-09-23T00:31:14.409Z,73.20
2022-09-23T00:33:41.440Z,73.30
2022-09-23T00:36:11.967Z,73.50
2022-09-23T00:38:39.112Z,73.40
2022-09-23T00:41:06.466Z,73.30
2022-09-23T00:43:37.538Z,73.30
2022-09-23T00:46:04.603Z,73.50
2022-09-23T00:48:31.394Z,73.50
2022-09-23T00:50:58.077Z,73.50
2022-09-23T00:53:29.628Z,73.50
2022-09-23T00:56:04.401Z,73.40
2022-09-23T00:58:34.026Z,73.70
2022-09-23T01:01:02.332Z,73.60
2022-09-23T01:03:29.209Z,73.50
2022-09-23T01:05:57.258Z,73.50
2022-09-23T01:08:24.515Z,73.60
2022-09-23T01:11:15.315Z,73.70
2022-09-23T01:13:52.474Z,73.70
2022-09-23T01:16:43.497Z,73.80
2022-09-23T01:19:57.737Z,73.70
2022-09-23T01:22:29.720Z,73.70
2022-09-23T01:25:17.566Z,73.90
2022-09-23T01:27:55.877Z,74.10
2022-09-23T01:30:37.937Z,74.00
2022-09-23T01:33:39.504Z,74.00
2022-09-23T01:36:36.138Z,73.90
2022-09-23T01:39:35.066Z,73.90
2022-09-23T01:42:14.257Z,74.00
2022-09-23T01:44:51.767Z,74.20
2022-09-23T01:47:48.140Z,74.30
2022-09-23T01:50:37.477Z,74.10
2022-09-23T01:53:14.476Z,74.20
2022-09-23T01:55:47.470Z,74.40
2022-09-23T01:58:53.764Z,74.50
2022-09-23T02:01:31.116Z,74.30
2022-09-23T02:04:04.223Z,74.40
2022-09-23T02:06:51.130Z,74.60
2022-09-23T02:09:24.943Z,74.50
2022-09-23T02:11:58.751Z,74.60
2022-09-23T02:14:31.463Z,74.60
2022-09-23T02:17:03.277Z,74.60
2022-09-23T02:19:32.213Z,74.50
2022-09-23T02:22:23.431Z,74.50
2022-09-23T02:24:50.430Z,74.70
2022-09-23T02:27:24.168Z,74.70
2022-09-23T02:30:12.534Z,74.80
2022-09-23T02:32:42.062Z,74.90
2022-09-23T02:35:22.570Z,74.80
2022-09-23T02:37:59.270Z,74.80
2022-09-23T02:40:43.631Z,74.80
2022-09-23T02:43:35.608Z,74.80
2022-09-23T02:46:04.754Z,74.90
2022-09-23T02:48:41.519Z,75.00
2022-09-23T02:51:09.903Z,74.80
2022-09-23T02:53:37.246Z,74.80
2022-09-23T02:56:14.777Z,74.70
2022-09-23T02:58:41.731Z,74.90
2022-09-23T03:01:37.272Z,74.90
2022-09-23T03:04:19.002Z,74.90
2022-09-23T03:07:00.709Z,74.90
2022-09-23T03:09:44.525Z,75.00
2022-09-23T03:12:22.233Z,75.10
2022-09-23T03:15:24.811Z,75.10
2022-09-23T03:18:02.880Z,75.00
2022-09-23T03:21:05.190Z,75.10
2022-09-23T03:23:37.175Z,75.00
2022-09-23T03:26:20.922Z,75.10
2022-09-23T03:28:50.252Z,75.30
2022-09-23T03:31:18.055Z,75.30
2022-09-23T03:33:52.200Z,75.30
2022-09-23T03:36:44.106Z,75.20
2022-09-23T03:39:18.247Z,75.30
2022-09-23T03:41:50.769Z,75.50
2022-09-23T03:44:19.577Z,75.50
2022-09-23T03:46:49.792Z,75.60
2022-09-23T03:49:27.345Z,75.60
2022-09-23T03:51:55.024Z,75.60
2022-09-23T03:54:21.983Z,75.70
2022-09-23T03:56:48.739Z,75.60
2022-09-23T03:59:16.040Z,75.70
2022-09-23T04:01:43.139Z,75.70
2022-09-23T04:04:10.355Z,75.80
2022-09-23T04:06:37.037Z,75.80
2022-09-23T04:09:03.894Z,75.80
2022-09-23T04:11:30.728Z,75.90
2022-09-23T04:13:57.518Z,75.90
2022-09-23T04:16:24.830Z,75.90
2022-09-23T04:18:51.854Z,76.00
2022-09-23T04:21:18.532Z,75.90
2022-09-23T04:23:46.397Z,75.90
2022-09-23T04:26:13.561Z,76.10
2022-09-23T04:28:40.397Z,76.20
2022-09-23T04:31:08.567Z,76.00
2022-09-23T04:33:35.650Z,76.00
2022-09-23T04:36:02.414Z,76.20
2022-09-23T04:38:29.189Z,76.40
2022-09-23T04:40:55.922Z,76.40
2022-09-23T04:43:23.660Z,76.20
2022-09-23T04:46:05.149Z,77.20
2022-09-23T04:48:32.336Z,76.20
2022-09-23T04:51:04.140Z,76.40
2022-09-23T04:53:31.179Z,76.50
2022-09-23T04:56:02.828Z,76.40
2022-09-23T04:58:29.481Z,76.60
2022-09-23T05:01:00.589Z,76.40
2022-09-23T05:03:35.117Z,76.40
2022-09-23T05:06:02.086Z,76.40
2022-09-23T05:08:29.544Z,76.40
2022-09-23T05:11:00.260Z,76.60
2022-09-23T05:13:27.291Z,77.50
2022-09-23T05:16:02.272Z,76.40
2022-09-23T05:18:31.990Z,76.30
2022-09-23T05:20:58.685Z,76.40
2022-09-23T05:23:25.713Z,76.30
2022-09-23T05:26:03.921Z,76.10
2022-09-23T05:28:34.973Z,76.30
2022-09-23T05:31:05.904Z,76.20
2022-09-23T05:33:34.133Z,75.90
2022-09-23T05:36:01.783Z,76.00
2022-09-23T05:38:29.369Z,75.90
2022-09-23T05:41:04.647Z,75.90
2022-09-23T05:43:32.286Z,75.70
2022-09-23T05:46:08.506Z,75.80
2022-09-23T05:48:36.673Z,75.80
2022-09-23T05:51:04.562Z,75.80
2022-09-23T05:53:31.454Z,76.70
2022-09-23T05:55:58.213Z,75.60
2022-09-23T05:58:25.325Z,75.90
2022-09-23T06:00:52.273Z,75.70
2022-09-23T06:03:20.500Z,75.60
2022-09-23T06:05:48.431Z,75.90
2022-09-23T06:08:15.465Z,75.80
2022-09-23T06:10:45.070Z,75.80
2022-09-23T06:13:12.041Z,75.40
2022-09-23T06:15:39.523Z,75.90
2022-09-23T06:18:06.939Z,75.70
2022-09-23T06:20:34.902Z,75.70
2022-09-23T06:23:10.220Z,75.90
2022-09-23T06:25:38.504Z,75.70
2022-09-23T06:28:12.088Z,75.80
2022-09-23T06:30:42.662Z,75.90
2022-09-23T06:33:10.051Z,75.70
2022-09-23T06:35:36.811Z,75.80
2022-09-23T06:38:04.931Z,75.80
2022-09-23T06:40:32.528Z,75.70
2022-09-23T06:43:00.739Z,75.40
2022-09-23T06:45:28.466Z,75.40
2022-09-23T06:47:57.015Z,75.20
2022-09-23T06:50:27.431Z,75.20
2022-09-23T06:52:56.177Z,74.90
2022-09-23T06:55:24.763Z,74.60
2022-09-23T06:57:51.528Z,75.00
2022-09-23T07:00:19.109Z,74.90
2022-09-23T07:02:46.200Z,74.80
2022-09-23T07:05:13.487Z,74.30
2022-09-23T07:07:40.228Z,74.40
2022-09-23T07:10:07.845Z,74.20
2022-09-23T07:12:34.551Z,74.30
2022-09-23T07:15:01.183Z,74.30
2022-09-23T07:17:28.202Z,74.40
2022-09-23T07:19:58.424Z,74.30
2022-09-23T07:22:28.421Z,74.00
2022-09-23T07:24:57.761Z,74.00
2022-09-23T07:27:25.838Z,73.80
2022-09-23T07:29:53.238Z,73.50
2022-09-23T07:32:22.063Z,73.50
2022-09-23T07:34:49.333Z,73.40
2022-09-23T07:37:17.331Z,73.40
2022-09-23T07:39:45.065Z,73.50
2022-09-23T07:42:14.240Z,73.30
2022-09-23T07:44:47.716Z,73.30
2022-09-23T07:47:15.647Z,72.90
2022-09-23T07:49:42.309Z,73.10
2022-09-23T07:52:08.961Z,72.80
2022-09-23T07:54:35.703Z,72.00
2022-09-23T07:57:02.587Z,72.10
2022-09-23T07:59:29.373Z,70.60
2022-09-23T08:01:57.248Z,71.00
2022-09-23T08:04:28.182Z,70.50
2022-09-23T08:07:00.220Z,70.40
2022-09-23T08:09:31.759Z,71.00
2022-09-23T08:11:58.610Z,70.50
2022-09-23T08:14:25.335Z,69.80
2022-09-23T08:16:52.246Z,70.60
2022-09-23T08:19:19.137Z,69.90
2022-09-23T08:21:47.500Z,70.00
2022-09-23T08:24:19.368Z,69.40
2022-09-23T08:26:46.681Z,69.20
2022-09-23T08:29:15.240Z,69.60
2022-09-23T08:31:42.608Z,69.60
2022-09-23T08:34:09.666Z,69.50
2022-09-23T08:36:37.125Z,69.30
2022-09-23T08:39:05.118Z,68.50
2022-09-23T08:41:40.531Z,68.90
2022-09-23T08:44:37.490Z,68.40
2022-09-23T08:47:34.722Z,68.60
2022-09-23T08:50:18.116Z,68.50
2022-09-23T08:52:56.857Z,68.20
2022-09-23T08:55:43.574Z,67.50
2022-09-23T08:58:35.162Z,68.30
2022-09-23T09:01:40.563Z,67.30
2022-09-23T09:04:22.939Z,67.00
2022-09-23T09:07:31.736Z,66.60
2022-09-23T09:10:16.689Z,67.00
2022-09-23T09:12:44.877Z,66.90
2022-09-23T09:15:13.162Z,66.90
2022-09-23T09:18:02.300Z,66.30
2022-09-23T09:20:54.797Z,64.90
2022-09-23T09:23:22.687Z,66.10
2022-09-23T09:25:52.608Z,66.10
2022-09-23T09:28:35.797Z,66.30
2022-09-23T09:31:22.808Z,65.70
2022-09-23T09:34:00.396Z,65.20
2022-09-23T09:36:36.249Z,65.60
2022-09-23T09:39:03.692Z,65.50
2022-09-23T09:41:31.570Z,64.90
2022-09-23T09:44:01.398Z,65.20
2022-09-23T09:46:50.857Z,65.20
2022-09-23T09:49:39.499Z,64.20
2022-09-23T09:52:13.972Z,64.20
2022-09-23T09:54:40.678Z,64.20
2022-09-23T09:57:33.613Z,64.50
2022-09-23T10:00:25.710Z,64.20
2022-09-23T10:02:54.270Z,63.50
2022-09-23T10:05:34.452Z,63.40
2022-09-23T10:08:27.295Z,63.80
2022-09-23T10:11:06.902Z,62.00
2022-09-23T10:13:33.552Z,62.90
2022-09-23T10:16:03.816Z,63.40
2022-09-23T10:18:50.348Z,63.10
2022-09-23T10:21:25.509Z,62.70
2022-09-23T10:24:01.553Z,60.40
2022-09-23T10:26:42.555Z,59.90
2022-09-23T10:29:32.951Z,59.90
2022-09-23T10:32:27.818Z,60.40
2022-09-23T10:35:03.308Z,60.60
2022-09-23T10:37:46.775Z,59.80
2022-09-23T10:40:32.385Z,60.10
2022-09-23T10:43:29.927Z,60.20
2022-09-23T10:46:21.763Z,60.50
2022-09-23T10:49:03.049Z,58.40
2022-09-23T10:51:58.515Z,59.90
2022-09-23T10:54:40.140Z,59.70
2022-09-23T10:57:45.547Z,59.70
2022-09-23T11:00:27.243Z,59.70
2022-09-23T11:02:53.842Z,59.40
2022-09-23T11:05:50.004Z,59.40
2022-09-23T11:08:42.731Z,59.40
2022-09-23T11:11:15.592Z,59.90
2022-09-23T11:14:04.151Z,59.80
2022-09-23T11:16:54.306Z,59.50
2022-09-23T11:19:56.455Z,59.90
2022-09-23T11:22:37.396Z,59.20
2022-09-23T11:25:58.150Z,59.20
2022-09-23T11:28:45.397Z,59.20
2022-09-23T11:31:36.371Z,59.10
2022-09-23T11:34:26.010Z,58.90
2022-09-23T11:36:59.690Z,59.00
2022-09-23T11:39:53.299Z,59.00
2022-09-23T11:42:25.065Z,58.00
2022-09-23T11:45:06.925Z,58.80
2022-09-23T11:47:44.969Z,58.60
2022-09-23T11:50:21.521Z,58.00
2022-09-23T11:52:53.906Z,58.20
2022-09-23T11:55:55.029Z,58.60
2022-09-23T11:58:30.166Z,58.50
2022-09-23T12:01:10.162Z,58.20
2022-09-23T12:04:17.298Z,58.60
2022-09-23T12:06:52.594Z,57.40
2022-09-23T12:09:56.853Z,58.00
2022-09-23T12:12:39.704Z,58.10
2022-09-23T12:15:21.520Z,58.90
2022-09-23T12:18:06.899Z,58.50
2022-09-23T12:20:55.839Z,58.40
2022-09-23T12:23:40.272Z,58.10
2022-09-23T12:26:17.221Z,58.20
2022-09-23T12:28:46.762Z,57.50
2022-09-23T12:31:17.022Z,57.70
2022-09-23T12:33:52.898Z,57.80
2022-09-23T12:36:35.423Z,57.80
2022-09-23T12:39:15.783Z,57.80
2022-09-23T12:41:48.645Z,57.50
2022-09-23T12:44:32.364Z,57.80
2022-09-23T12:47:27.999Z,57.10
2022-09-23T12:49:58.738Z,57.00
2022-09-23T12:52:28.542Z,57.20
2022-09-23T12:55:24.889Z,56.90
2022-09-23T12:57:51.571Z,56.90
2022-09-23T13:00:22.685Z,56.20
2022-09-23T13:03:12.317Z,56.00
2022-09-23T13:06:20.385Z,56.60
2022-09-23T13:08:49.370Z,56.40
2022-09-23T13:11:31.426Z,55.90
2022-09-23T13:14:02.638Z,55.50
2022-09-23T13:16:30.965Z,55.70
2022-09-23T13:19:01.330Z,56.30
2022-09-23T13:21:43.193Z,56.00
2022-09-23T13:24:20.316Z,56.30
2022-09-23T13:26:48.026Z,56.20
2022-09-23T13:29:25.681Z,56.30
2022-09-23T13:31:53.370Z,56.80
2022-09-23T13:34:24.388Z,56.10
2022-09-23T13:36:51.047Z,56.00
2022-09-23T13:39:28.753Z,56.30
2022-09-23T13:42:01.983Z,56.50
2022-09-23T13:44:29.661Z,56.70
2022-09-23T13:47:02.172Z,56.80
2022-09-23T13:49:35.331Z,56.40
2022-09-23T13:52:02.849Z,56.70
2022-09-23T13:54:36.341Z,56.80
2022-09-23T13:57:03.794Z,56.90
2022-09-23T13:59:38.003Z,57.10
2022-09-23T14:02:12.252Z,57.20
2022-09-23T14:04:39.413Z,56.90
2022-09-23T14:07:09.462Z,56.90
2022-09-23T14:09:37.908Z,57.30
2022-09-23T14:12:06.398Z,57.40
2022-09-23T14:14:36.408Z,57.80
2022-09-23T14:17:04.816Z,58.10
2022-09-23T14:19:32.487Z,58.20
2022-09-23T14:22:00.073Z,57.90
2022-09-23T14:24:29.723Z,58.20
2022-09-23T14:26:58.606Z,58.40
2022-09-23T14:29:37.290Z,58.50
2022-09-23T14:32:07.605Z,58.70
2022-09-23T14:34:45.495Z,58.80
2022-09-23T14:37:56.884Z,58.70
2022-09-23T14:40:31.033Z,59.00
2022-09-23T14:43:03.710Z,59.10
2022-09-23T14:45:40.774Z,59.00
2022-09-23T14:48:10.696Z,59.50
2022-09-23T14:50:39.361Z,59.40
2022-09-23T14:53:36.425Z,59.40
2022-09-23T14:56:06.042Z,59.60
2022-09-23T14:58:43.006Z,59.70
2022-09-23T15:01:38.787Z,59.90
2022-09-23T15:04:13.014Z,60.30
2022-09-23T15:06:44.939Z,60.60
2022-09-23T15:09:20.076Z,60.60
2022-09-23T15:11:47.253Z,60.80
2022-09-23T15:14:36.650Z,60.90
2022-09-23T15:17:03.541Z,61.10
2022-09-23T15:19:31.577Z,61.00
2022-09-23T15:21:58.334Z,61.30
2022-09-23T15:24:45.708Z,61.70
2022-09-23T15:27:30.482Z,61.40
2022-09-23T15:30:17.033Z,61.70
2022-09-23T15:32:45.569Z,61.90
2022-09-23T15:35:15.599Z,62.00
2022-09-23T15:37:43.850Z,62.50
2022-09-23T15:40:25.665Z,62.80
2022-09-23T15:42:56.248Z,62.70
2022-09-23T15:45:31.771Z,63.00
2022-09-23T15:48:03.205Z,62.90
2022-09-23T15:50:31.149Z,63.80
2022-09-23T15:52:57.913Z,63.60
2022-09-23T15:55:24.654Z,64.10
2022-09-23T15:57:51.313Z,64.60
2022-09-23T16:00:18.091Z,64.60
2022-09-23T16:02:47.063Z,64.70
2022-09-23T16:05:25.028Z,65.10
2022-09-23T16:07:52.427Z,65.60
2022-09-23T16:10:20.990Z,65.90
2022-09-23T16:12:48.289Z,66.70
2022-09-23T16:15:19.276Z,66.40
2022-09-23T16:17:46.068Z,66.50
2022-09-23T16:20:17.645Z,66.80
2022-09-23T16:22:48.338Z,67.00
2022-09-23T16:25:15.594Z,67.20
2022-09-23T16:27:42.237Z,67.50
2022-09-23T16:30:10.111Z,68.20
2022-09-23T16:32:36.822Z,68.40
2022-09-23T16:35:03.949Z,68.50
2022-09-23T16:37:30.715Z,68.70
2022-09-23T16:39:57.515Z,68.90
2022-09-23T16:42:24.155Z,69.20
2022-09-23T16:44:50.791Z,69.40
2022-09-23T16:47:17.546Z,69.60
2022-09-23T16:49:44.249Z,69.90
2022-09-23T16:52:14.355Z,70.10
2022-09-23T16:54:42.167Z,70.30
2022-09-23T16:57:09.672Z,70.60
2022-09-23T16:59:54.743Z,70.80
2022-09-23T17:02:40.157Z,71.00
2022-09-23T17:05:07.310Z,71.30
2022-09-23T17:07:33.932Z,71.50
2022-09-23T17:10:00.609Z,71.80
2022-09-23T17:12:32.591Z,72.00
2022-09-23T17:15:00.544Z,72.30
2022-09-23T17:17:28.386Z,72.60
2022-09-23T17:19:55.027Z,73.10
2022-09-23T17:22:21.761Z,73.20
2022-09-23T17:24:48.390Z,73.20
2022-09-23T17:27:17.093Z,73.30
2022-09-23T17:29:44.423Z,73.50
2022-09-23T17:32:11.112Z,73.70
2022-09-23T17:34:37.793Z,74.10
2022-09-23T17:37:05.578Z,74.30
2022-09-23T17:39:32.219Z,74.60
2022-09-23T17:41:59.117Z,74.70
2022-09-23T17:44:26.371Z,74.80
2022-09-23T17:46:53.035Z,74.90
2022-09-23T17:49:20.277Z,75.10
2022-09-23T17:51:47.009Z,75.40
2022-09-23T17:54:14.981Z,75.50
2022-09-23T17:56:42.529Z,75.60
2022-09-23T17:59:12.553Z,75.70
2022-09-23T18:01:39.286Z,76.80
2022-09-23T18:04:06.060Z,75.80
2022-09-23T18:06:37.135Z,75.90
2022-09-23T18:09:06.509Z,76.00
2022-09-23T18:11:36.048Z,76.20
2022-09-23T18:14:05.669Z,76.50
2022-09-23T18:16:38.594Z,76.60
2022-09-23T18:19:06.876Z,76.60
2022-09-23T18:21:37.316Z,76.70
2022-09-23T18:24:28.562Z,77.00
2022-09-23T18:26:51.110Z,77.10
2022-09-23T18:29:18.510Z,77.20
2022-09-23T18:31:45.717Z,77.20
2022-09-23T18:34:15.190Z,77.40
2022-09-23T18:36:42.321Z,77.50
2022-09-23T18:39:09.260Z,77.40
2022-09-23T18:41:36.161Z,77.50
2022-09-23T18:44:03.802Z,77.70
2022-09-23T18:46:31.530Z,77.90
2022-09-23T18:49:17.306Z,78.00
2022-09-23T18:51:53.600Z,78.00
2022-09-23T18:54:20.480Z,78.10
2022-09-23T18:56:47.482Z,78.40
2022-09-23T18:59:18.020Z,78.40
2022-09-23T19:01:45.880Z,78.40
2022-09-23T19:04:14.134Z,78.30
2022-09-23T19:06:40.787Z,78.40
2022-09-23T19:09:07.685Z,78.50
2022-09-23T19:11:36.217Z,78.70
2022-09-23T19:14:05.846Z,78.70
2022-09-23T19:16:33.280Z,78.90
2022-09-23T19:19:00.338Z,80.80
2022-09-23T19:21:28.398Z,79.50
2022-09-23T19:24:03.660Z,79.20
2022-09-23T19:26:41.362Z,79.10
2022-09-23T19:29:12.477Z,79.10
2022-09-23T19:31:40.001Z,79.30
2022-09-23T19:34:12.172Z,79.10
2022-09-23T19:36:40.730Z,79.40
2022-09-23T19:39:15.062Z,79.50
2022-09-23T19:41:41.813Z,79.60
2022-09-23T19:44:08.692Z,79.40
2022-09-23T19:46:37.707Z,79.50
2022-09-23T19:49:05.957Z,79.70
2022-09-23T19:51:34.023Z,80.00
2022-09-23T19:54:02.105Z,80.00
2022-09-23T19:56:30.466Z,80.20
2022-09-23T19:58:58.234Z,80.00
2022-09-23T20:01:29.596Z,79.80
2022-09-23T20:03:56.738Z,79.80
2022-09-23T20:06:23.552Z,79.80
2022-09-23T20:08:50.317Z,79.60
2022-09-23T20:11:21.788Z,79.80
2022-09-23T20:13:58.428Z,79.80
2022-09-23T20:16:25.837Z,79.90
2022-09-23T20:18:53.006Z,79.80
2022-09-23T20:21:19.665Z,79.80
2022-09-23T20:23:46.337Z,79.80
2022-09-23T20:26:31.612Z,79.80
2022-09-23T20:29:01.364Z,79.70
2022-09-23T20:31:28.714Z,79.80
2022-09-23T20:33:58.496Z,79.80
2022-09-23T20:36:26.628Z,79.90
2022-09-23T20:38:59.610Z,79.80
2022-09-23T20:41:27.847Z,79.80
2022-09-23T20:43:55.284Z,79.80
2022-09-23T20:46:23.399Z,79.80
2022-09-23T20:48:50.312Z,79.80
2022-09-23T20:51:17.799Z,79.80
2022-09-23T20:53:45.735Z,79.80
2022-09-23T20:56:13.890Z,79.80
2022-09-23T20:58:40.571Z,79.80
2022-09-23T21:01:12.432Z,79.80
2022-09-23T21:03:41.661Z,79.80
2022-09-23T21:06:09.690Z,79.80
2022-09-23T21:08:37.689Z,79.80
2022-09-23T21:11:08.034Z,79.80
2022-09-23T21:13:35.240Z,79.70
2022-09-23T21:16:03.763Z,80.70
2022-09-23T21:18:30.890Z,79.70
2022-09-23T21:20:59.444Z,79.90
2022-09-23T21:23:34.402Z,79.80
2022-09-23T21:26:12.076Z,79.70
2022-09-23T21:28:43.896Z,79.90
2022-09-23T21:31:22.590Z,79.70
2022-09-23T21:33:53.357Z,79.70
2022-09-23T21:36:20.902Z,79.70
2022-09-23T21:38:47.608Z,79.70
2022-09-23T21:41:14.329Z,79.70
2022-09-23T21:43:41.344Z,79.70
2022-09-23T21:46:10.901Z,79.70
2022-09-23T21:48:41.088Z,79.70
2022-09-23T21:51:13.372Z,79.70
2022-09-23T21:53:41.214Z,79.70
2022-09-23T21:56:11.880Z,79.70
2022-09-23T21:58:40.732Z,80.00
2022-09-23T22:01:20.461Z,80.00
2022-09-23T22:03:57.801Z,80.80
2022-09-23T22:06:27.109Z,80.10
2022-09-23T22:08:55.706Z,80.10
2022-09-23T22:11:41.952Z,80.40
2022-09-23T22:14:11.786Z,80.30
2022-09-23T22:16:39.191Z,80.60
2022-09-23T22:19:09.193Z,80.40
2022-09-23T22:21:38.044Z,80.70
2022-09-23T22:24:07.300Z,80.70
2022-09-23T22:26:36.572Z,80.90
2022-09-23T22:29:27.956Z,80.80
2022-09-23T22:32:13.274Z,81.00
2022-09-23T22:34:51.463Z,82.20
2022-09-23T22:37:27.585Z,81.10
2022-09-23T22:39:54.577Z,81.40
2022-09-23T22:42:22.315Z,81.20
2022-09-23T22:44:50.126Z,81.50
2022-09-23T22:47:20.037Z,81.80
2022-09-23T22:49:47.209Z,81.90
2022-09-23T22:52:15.833Z,81.70
2022-09-23T22:54:42.486Z,81.40
2022-09-23T22:57:09.817Z,81.40
2022-09-23T22:59:37.350Z,81.50
2022-09-23T23:02:05.075Z,81.40
2022-09-23T23:04:31.964Z,81.50
2022-09-23T23:06:58.780Z,81.60
2022-09-23T23:09:25.815Z,81.40
2022-09-23T23:11:52.461Z,81.50
2022-09-23T23:14:19.453Z,81.40
2022-09-23T23:16:47.122Z,81.50
2022-09-23T23:19:16.962Z,82.00
2022-09-23T23:21:45.446Z,82.00
2022-09-23T23:24:20.854Z,82.40
2022-09-23T23:26:48.556Z,82.40
2022-09-23T23:29:17.613Z,82.20
2022-09-23T23:31:44.994Z,82.10
2022-09-23T23:34:14.643Z,82.80
2022-09-23T23:36:41.477Z,82.40
2022-09-23T23:39:08.370Z,82.10
2022-09-23T23:41:35.065Z,82.60
2022-09-23T23:44:01.966Z,82.30
2022-09-23T23:46:30.531Z,82.10
2022-09-23T23:48:58.125Z,82.10
2022-09-23T23:51:26.454Z,82.20
2022-09-23T23:53:54.157Z,82.70
2022-09-23T23:56:22.953Z,82.60
2022-09-23T23:59:01.097Z,83.00
